Saxaren — SKHW — position and weather

sailwx.info

Track history (hours):
 
Tides and Currents Weather Stations Pressure Air Temp Water Temp Dewpoint Dewpoint Depression Visibility Wind Speed Wind Dir Waves Ship Positions

Saxaren

Last reported at 2014-Oct-21 08:33 UTC. Time now 2014-Oct-21 08:49 UTC.
Position N 59°20' E 018°05'.

Length 38 m; draft 1.8 m.

Type: Passenger vessel. MMSI: 265512110.

Date/timePositionNaut miles runAvg speedWind from/ knotsBaromVisibWave heightAir tempDewpointWater temp
2014-Oct-21 08:33N 59°20' E 018°05'0 0.0
2014-Oct-21 07:34N 59°20' E 018°05'0 0.0
2014-Oct-21 06:33N 59°20' E 018°05'0 0.0
2014-Oct-21 05:33N 59°20' E 018°05'0 0.0
2014-Oct-21 04:33N 59°20' E 018°05'0 0.0
2014-Oct-21 03:32N 59°20' E 018°05'0 0.0
2014-Oct-21 02:32N 59°20' E 018°05'0 0.0
2014-Oct-21 01:33N 59°20' E 018°05'0 0.0
2014-Oct-21 00:33N 59°20' E 018°05'0 0.0
2014-Oct-20 23:33N 59°20' E 018°05'0 0.0
2014-Oct-20 22:33N 59°20' E 018°05'0 0.0
2014-Oct-20 21:33N 59°20' E 018°05'0 0.0
2014-Oct-20 20:33N 59°20' E 018°05'0 0.0
2014-Oct-20 19:33N 59°20' E 018°05'0 0.0
2014-Oct-20 18:33N 59°20' E 018°05'0 0.0
2014-Oct-20 17:33N 59°20' E 018°05'0 0.0
2014-Oct-20 16:32N 59°20' E 018°05'0 0.0
2014-Oct-20 15:32N 59°20' E 018°05'0 0.0
2014-Oct-20 14:33N 59°20' E 018°05'0 0.0
2014-Oct-20 13:33N 59°20' E 018°05'0 0.0
2014-Oct-20 12:33N 59°20' E 018°05'0 0.0
2014-Oct-20 11:33N 59°20' E 018°05'0 0.0
2014-Oct-20 10:33N 59°20' E 018°05'0 0.0
2014-Oct-20 09:32N 59°20' E 018°05'0 0.0
2014-Oct-20 08:33N 59°20' E 018°05'0 0.0
2014-Oct-20 07:33N 59°20' E 018°05'0 0.0
2014-Oct-20 06:32N 59°20' E 018°05'0 0.0
2014-Oct-20 05:32N 59°20' E 018°05'0 0.0
2014-Oct-20 04:31N 59°20' E 018°05'0 0.0
2014-Oct-20 03:33N 59°20' E 018°05'0 0.0
2014-Oct-20 02:33N 59°20' E 018°05'0 0.0
2014-Oct-20 01:33N 59°20' E 018°05'0 0.0
2014-Oct-20 00:33N 59°20' E 018°05'0 0.0
2014-Oct-19 23:32N 59°20' E 018°05'0 0.0
2014-Oct-19 22:33N 59°20' E 018°05'0 0.0
2014-Oct-19 21:33N 59°20' E 018°05'0 0.0
2014-Oct-19 20:32N 59°20' E 018°05'0 0.0
2014-Oct-19 19:33N 59°20' E 018°05'1 0.9
2014-Oct-19 18:33N 59°19' E 018°06'8 1.9
2014-Oct-19 14:22N 59°23' E 018°19'8 9.7
2014-Oct-19 13:32N 59°20' E 018°05'8 7.9
2014-Oct-19 12:33N 59°23' E 018°19'1 0.2
2014-Oct-19 07:30N 59°22' E 018°20'8 8.7
2014-Oct-19 06:32N 59°20' E 018°05'0 0.0
2014-Oct-19 05:32N 59°20' E 018°05'0 0.0
2014-Oct-19 04:32N 59°20' E 018°05'0 0.0
2014-Oct-19 03:33N 59°20' E 018°05'0 0.0
2014-Oct-19 02:33N 59°20' E 018°05'0 0.0
2014-Oct-19 01:33N 59°20' E 018°05'0 0.0
2014-Oct-19 00:33N 59°20' E 018°05'0 0.0
2014-Oct-18 23:32N 59°20' E 018°05'0 0.0
2014-Oct-18 22:32N 59°20' E 018°05'0 0.0
2014-Oct-18 21:32N 59°20' E 018°05'0 0.0
2014-Oct-18 20:32N 59°20' E 018°05'0 0.0
2014-Oct-18 19:33N 59°20' E 018°05'0 0.0
2014-Oct-18 18:33N 59°20' E 018°05'0 0.0
2014-Oct-18 17:32N 59°20' E 018°05'0 0.1
2014-Oct-18 16:33N 59°20' E 018°05'8 0.8
2014-Oct-18 07:13N 59°23' E 018°19'811.9
2014-Oct-18 06:33N 59°20' E 018°05'0 0.2
2014-Oct-18 05:32N 59°20' E 018°05'0 0.0
2014-Oct-18 04:33N 59°20' E 018°05'0 0.0
2014-Oct-18 03:33N 59°20' E 018°05'0 0.0
2014-Oct-18 02:33N 59°20' E 018°05'0 0.0
2014-Oct-18 01:33N 59°20' E 018°05'0 0.0
2014-Oct-18 00:33N 59°20' E 018°05'0 0.0
2014-Oct-17 23:32N 59°20' E 018°05'0 0.0
2014-Oct-17 22:33N 59°20' E 018°05'0 0.0
2014-Oct-17 21:33N 59°20' E 018°05'8 7.7
2014-Oct-17 20:33N 59°23' E 018°18'  
2014-Oct-15 12:22N 59°20' E 018°05'0 0.0
2014-Oct-15 11:07N 59°20' E 018°05'0 0.0
2014-Oct-15 10:32N 59°20' E 018°05'0 0.0
2014-Oct-15 09:25N 59°20' E 018°05'0 0.0
2014-Oct-15 07:33N 59°20' E 018°05'0 0.0
2014-Oct-15 06:33N 59°20' E 018°05'0 0.0
2014-Oct-15 05:33N 59°20' E 018°05'0 0.0
2014-Oct-15 04:33N 59°20' E 018°05'0 0.0
2014-Oct-15 03:33N 59°20' E 018°05'0 0.0
2014-Oct-15 02:33N 59°20' E 018°05'0 0.0
2014-Oct-15 01:33N 59°20' E 018°05'0 0.0
2014-Oct-15 00:33N 59°20' E 018°05'0 0.0
2014-Oct-14 23:33N 59°20' E 018°05'0 0.0
2014-Oct-14 22:33N 59°20' E 018°05'0 0.0
2014-Oct-14 21:33N 59°20' E 018°05'0 0.0
2014-Oct-14 20:33N 59°20' E 018°05'0 0.0
2014-Oct-14 19:33N 59°20' E 018°05'0 0.0
2014-Oct-14 18:33N 59°20' E 018°05'0 0.0
2014-Oct-14 17:33N 59°20' E 018°05'0 0.0
2014-Oct-14 16:33N 59°20' E 018°05'0 0.0
2014-Oct-14 13:04N 59°20' E 018°05'0 0.0
2014-Oct-14 10:28N 59°20' E 018°05'0 0.0
2014-Oct-14 06:32N 59°20' E 018°05'0 0.0
2014-Oct-14 04:30N 59°20' E 018°05'0 0.0
2014-Oct-14 03:30N 59°20' E 018°05'0 0.0
2014-Oct-14 02:30N 59°20' E 018°05'0 0.0
2014-Oct-14 01:32N 59°20' E 018°05'0 0.0
2014-Oct-14 00:29N 59°20' E 018°05'0 0.0
2014-Oct-13 23:33N 59°20' E 018°05'0 0.0
2014-Oct-13 22:30N 59°20' E 018°05'0 0.0
2014-Oct-13 21:27N 59°20' E 018°05'0 0.0
2014-Oct-13 18:14N 59°20' E 018°05'0 0.0
2014-Oct-13 15:32N 59°20' E 018°05'0 0.0
2014-Oct-13 14:33N 59°20' E 018°05'0 0.0
2014-Oct-13 12:22N 59°20' E 018°05'0 0.0
2014-Oct-13 10:33N 59°20' E 018°05'0 0.0
2014-Oct-13 09:32N 59°20' E 018°05'0 0.0
2014-Oct-13 06:16N 59°20' E 018°05'0 0.0
2014-Oct-13 04:24N 59°20' E 018°05'0 0.0
2014-Oct-13 03:33N 59°20' E 018°05'0 0.0
2014-Oct-13 02:33N 59°20' E 018°05'0 0.0
2014-Oct-13 01:32N 59°20' E 018°05'0 0.0
2014-Oct-12 21:28N 59°20' E 018°05'0 0.0
2014-Oct-12 19:22N 59°20' E 018°05'2 2.7
2014-Oct-12 18:29N 59°19' E 018°09'6 1.5
2014-Oct-12 14:19N 59°23' E 018°19'8 6.7
2014-Oct-12 13:06N 59°20' E 018°05'711.3
2014-Oct-12 12:28N 59°23' E 018°18'4 0.8
2014-Oct-12 07:08N 59°20' E 018°11'3 0.2
2014-Oct-11 16:34N 59°20' E 018°05'  
Track history (hours):
 
Tides and Currents Weather Stations Pressure Air Temp Water Temp Dewpoint Dewpoint Depression Visibility Wind Speed Wind Dir Waves Ship Positions

Saxaren

Last reported at 2014-Oct-21 08:33 UTC. Time now 2014-Oct-21 08:49 UTC.
Position N 59°20' E 018°05'.

Length 38 m; draft 1.8 m.

Type: Passenger vessel. MMSI: 265512110.

Date/timePositionNaut miles runAvg speedWind from/ knotsBaromVisibWave heightAir tempDewpointWater temp
2014-Oct-21 08:33N 59°20' E 018°05'0 0.0
2014-Oct-21 07:34N 59°20' E 018°05'0 0.0
2014-Oct-21 06:33N 59°20' E 018°05'0 0.0
2014-Oct-21 05:33N 59°20' E 018°05'0 0.0
2014-Oct-21 04:33N 59°20' E 018°05'0 0.0
2014-Oct-21 03:32N 59°20' E 018°05'0 0.0
2014-Oct-21 02:32N 59°20' E 018°05'0 0.0
2014-Oct-21 01:33N 59°20' E 018°05'0 0.0
2014-Oct-21 00:33N 59°20' E 018°05'0 0.0
2014-Oct-20 23:33N 59°20' E 018°05'0 0.0
2014-Oct-20 22:33N 59°20' E 018°05'0 0.0
2014-Oct-20 21:33N 59°20' E 018°05'0 0.0
2014-Oct-20 20:33N 59°20' E 018°05'0 0.0
2014-Oct-20 19:33N 59°20' E 018°05'0 0.0
2014-Oct-20 18:33N 59°20' E 018°05'0 0.0
2014-Oct-20 17:33N 59°20' E 018°05'0 0.0
2014-Oct-20 16:32N 59°20' E 018°05'0 0.0
2014-Oct-20 15:32N 59°20' E 018°05'0 0.0
2014-Oct-20 14:33N 59°20' E 018°05'0 0.0
2014-Oct-20 13:33N 59°20' E 018°05'0 0.0
2014-Oct-20 12:33N 59°20' E 018°05'0 0.0
2014-Oct-20 11:33N 59°20' E 018°05'0 0.0
2014-Oct-20 10:33N 59°20' E 018°05'0 0.0
2014-Oct-20 09:32N 59°20' E 018°05'0 0.0
2014-Oct-20 08:33N 59°20' E 018°05'0 0.0
2014-Oct-20 07:33N 59°20' E 018°05'0 0.0
2014-Oct-20 06:32N 59°20' E 018°05'0 0.0
2014-Oct-20 05:32N 59°20' E 018°05'0 0.0
2014-Oct-20 04:31N 59°20' E 018°05'0 0.0
2014-Oct-20 03:33N 59°20' E 018°05'0 0.0
2014-Oct-20 02:33N 59°20' E 018°05'0 0.0
2014-Oct-20 01:33N 59°20' E 018°05'0 0.0
2014-Oct-20 00:33N 59°20' E 018°05'0 0.0
2014-Oct-19 23:32N 59°20' E 018°05'0 0.0
2014-Oct-19 22:33N 59°20' E 018°05'0 0.0
2014-Oct-19 21:33N 59°20' E 018°05'0 0.0
2014-Oct-19 20:32N 59°20' E 018°05'0 0.0
2014-Oct-19 19:33N 59°20' E 018°05'1 0.9
2014-Oct-19 18:33N 59°19' E 018°06'8 1.9
2014-Oct-19 14:22N 59°23' E 018°19'8 9.7
2014-Oct-19 13:32N 59°20' E 018°05'8 7.9
2014-Oct-19 12:33N 59°23' E 018°19'1 0.2
2014-Oct-19 07:30N 59°22' E 018°20'8 8.7
2014-Oct-19 06:32N 59°20' E 018°05'0 0.0
2014-Oct-19 05:32N 59°20' E 018°05'0 0.0
2014-Oct-19 04:32N 59°20' E 018°05'0 0.0
2014-Oct-19 03:33N 59°20' E 018°05'0 0.0
2014-Oct-19 02:33N 59°20' E 018°05'0 0.0
2014-Oct-19 01:33N 59°20' E 018°05'0 0.0
2014-Oct-19 00:33N 59°20' E 018°05'0 0.0
2014-Oct-18 23:32N 59°20' E 018°05'0 0.0
2014-Oct-18 22:32N 59°20' E 018°05'0 0.0
2014-Oct-18 21:32N 59°20' E 018°05'0 0.0
2014-Oct-18 20:32N 59°20' E 018°05'0 0.0
2014-Oct-18 19:33N 59°20' E 018°05'0 0.0
2014-Oct-18 18:33N 59°20' E 018°05'0 0.0
2014-Oct-18 17:32N 59°20' E 018°05'0 0.1
2014-Oct-18 16:33N 59°20' E 018°05'8 0.8
2014-Oct-18 07:13N 59°23' E 018°19'811.9
2014-Oct-18 06:33N 59°20' E 018°05'0 0.2
2014-Oct-18 05:32N 59°20' E 018°05'0 0.0
2014-Oct-18 04:33N 59°20' E 018°05'0 0.0
2014-Oct-18 03:33N 59°20' E 018°05'0 0.0
2014-Oct-18 02:33N 59°20' E 018°05'0 0.0
2014-Oct-18 01:33N 59°20' E 018°05'0 0.0
2014-Oct-18 00:33N 59°20' E 018°05'0 0.0
2014-Oct-17 23:32N 59°20' E 018°05'0 0.0
2014-Oct-17 22:33N 59°20' E 018°05'0 0.0
2014-Oct-17 21:33N 59°20' E 018°05'8 7.7
2014-Oct-17 20:33N 59°23' E 018°18'  
2014-Oct-15 12:22N 59°20' E 018°05'0 0.0
2014-Oct-15 11:07N 59°20' E 018°05'0 0.0
2014-Oct-15 10:32N 59°20' E 018°05'0 0.0
2014-Oct-15 09:25N 59°20' E 018°05'0 0.0
2014-Oct-15 07:33N 59°20' E 018°05'0 0.0
2014-Oct-15 06:33N 59°20' E 018°05'0 0.0
2014-Oct-15 05:33N 59°20' E 018°05'0 0.0
2014-Oct-15 04:33N 59°20' E 018°05'0 0.0
2014-Oct-15 03:33N 59°20' E 018°05'0 0.0
2014-Oct-15 02:33N 59°20' E 018°05'0 0.0
2014-Oct-15 01:33N 59°20' E 018°05'0 0.0
2014-Oct-15 00:33N 59°20' E 018°05'0 0.0
2014-Oct-14 23:33N 59°20' E 018°05'0 0.0
2014-Oct-14 22:33N 59°20' E 018°05'0 0.0
2014-Oct-14 21:33N 59°20' E 018°05'0 0.0
2014-Oct-14 20:33N 59°20' E 018°05'0 0.0
2014-Oct-14 19:33N 59°20' E 018°05'0 0.0
2014-Oct-14 18:33N 59°20' E 018°05'0 0.0
2014-Oct-14 17:33N 59°20' E 018°05'0 0.0
2014-Oct-14 16:33N 59°20' E 018°05'0 0.0
2014-Oct-14 13:04N 59°20' E 018°05'0 0.0
2014-Oct-14 10:28N 59°20' E 018°05'0 0.0
2014-Oct-14 06:32N 59°20' E 018°05'0 0.0
2014-Oct-14 04:30N 59°20' E 018°05'0 0.0
2014-Oct-14 03:30N 59°20' E 018°05'0 0.0
2014-Oct-14 02:30N 59°20' E 018°05'0 0.0
2014-Oct-14 01:32N 59°20' E 018°05'0 0.0
2014-Oct-14 00:29N 59°20' E 018°05'0 0.0
2014-Oct-13 23:33N 59°20' E 018°05'0 0.0
2014-Oct-13 22:30N 59°20' E 018°05'0 0.0
2014-Oct-13 21:27N 59°20' E 018°05'0 0.0
2014-Oct-13 18:14N 59°20' E 018°05'0 0.0
2014-Oct-13 15:32N 59°20' E 018°05'0 0.0
2014-Oct-13 14:33N 59°20' E 018°05'0 0.0
2014-Oct-13 12:22N 59°20' E 018°05'0 0.0
2014-Oct-13 10:33N 59°20' E 018°05'0 0.0
2014-Oct-13 09:32N 59°20' E 018°05'0 0.0
2014-Oct-13 06:16N 59°20' E 018°05'0 0.0
2014-Oct-13 04:24N 59°20' E 018°05'0 0.0
2014-Oct-13 03:33N 59°20' E 018°05'0 0.0
2014-Oct-13 02:33N 59°20' E 018°05'0 0.0
2014-Oct-13 01:32N 59°20' E 018°05'0 0.0
2014-Oct-12 21:28N 59°20' E 018°05'0 0.0
2014-Oct-12 19:22N 59°20' E 018°05'2 2.7
2014-Oct-12 18:29N 59°19' E 018°09'6 1.5
2014-Oct-12 14:19N 59°23' E 018°19'8 6.7
2014-Oct-12 13:06N 59°20' E 018°05'711.3
2014-Oct-12 12:28N 59°23' E 018°18'4 0.8
2014-Oct-12 07:08N 59°20' E 018°11'3 0.2
2014-Oct-11 16:34N 59°20' E 018°05'  

Dump ship's entire track history